Time;durP1;ratioP1;P1;durP2;ratioP2;P2;SDS_P1;SDS_P2;PMS_P1;PMS_P2;Temp;Humidity;BMP_temperature;BMP_pressure;BME280_temperature;BME280_humidity;BME280_pressure;Samples;Min_cycle;Max_cycle;Signal;HPM_P1;HPM_P2
2023/01/22 00:01:29;;;;;;;52.30;29.40;;;;;;;3.27;72.22;101838.58;107565;1253;112402;-60
2023/01/22 00:03:58;;;;;;;44.30;27.90;;;;;;;3.29;72.60;101840.45;107579;1256;111053;-59
2023/01/22 00:06:26;;;;;;;46.20;28.80;;;;;;;3.32;72.96;101843.36;107561;1254;106242;-60
2023/01/22 00:08:54;;;;;;;49.80;28.20;;;;;;;3.36;73.26;101846.58;107559;1256;97839;-60
2023/01/22 00:11:23;;;;;;;47.50;27.00;;;;;;;3.40;73.41;101841.77;107597;1254;97745;-59
2023/01/22 00:13:52;;;;;;;48.70;27.70;;;;;;;3.47;73.46;101842.92;107595;1254;111742;-60
2023/01/22 00:16:20;;;;;;;54.00;29.30;;;;;;;3.54;73.79;101843.52;107591;1256;110235;-59
2023/01/22 00:18:49;;;;;;;52.90;28.00;;;;;;;3.61;74.30;101842.69;107516;1253;107888;-60
2023/01/22 00:21:17;;;;;;;51.00;28.40;;;;;;;3.69;74.12;101851.06;107552;1255;97889;-59
2023/01/22 00:23:46;;;;;;;58.50;31.00;;;;;;;3.76;74.46;101856.27;107552;1257;97915;-60
2023/01/22 00:26:16;;;;;;;53.50;28.90;;;;;;;3.85;74.78;101858.38;107577;1254;111700;-65
2023/01/22 00:28:45;;;;;;;51.10;27.30;;;;;;;3.91;74.48;101861.11;107515;1253;108986;-60
2023/01/22 00:31:15;;;;;;;49.40;26.60;;;;;;;3.98;74.55;101861.04;107585;1254;108646;-59
2023/01/22 00:33:46;;;;;;;50.50;26.90;;;;;;;4.05;74.66;101862.98;107547;1256;97832;-60
2023/01/22 00:36:19;;;;;;;52.40;26.70;;;;;;;4.15;74.91;101860.99;107488;1255;98001;-61
2023/01/22 00:38:49;;;;;;;39.90;25.10;;;;;;;4.21;74.94;101864.07;107511;1254;112330;-60
2023/01/22 00:41:18;;;;;;;44.10;25.80;;;;;;;4.27;74.73;101865.23;107601;1257;109946;-58
2023/01/22 00:43:48;;;;;;;40.10;23.10;;;;;;;4.30;74.49;101865.66;107517;1257;108556;-60
2023/01/22 00:46:20;;;;;;;46.20;26.00;;;;;;;4.33;74.56;101861.98;107581;1256;98036;-60
2023/01/22 00:48:49;;;;;;;49.00;24.60;;;;;;;4.36;74.64;101855.41;107560;1254;98491;-59
2023/01/22 00:51:17;;;;;;;43.20;25.30;;;;;;;4.36;74.71;101852.92;107588;1254;112153;-61
2023/01/22 00:53:46;;;;;;;41.50;22.70;;;;;;;4.32;74.51;101858.11;107523;1254;110378;-59
2023/01/22 00:56:15;;;;;;;37.40;21.80;;;;;;;4.31;74.56;101857.61;107574;1253;108282;-60
2023/01/22 00:58:44;;;;;;;42.20;24.30;;;;;;;4.31;74.58;101862.58;107544;1254;97950;-59
2023/01/22 01:01:14;;;;;;;37.70;24.30;;;;;;;4.30;74.54;101864.79;107543;1254;97727;-59
2023/01/22 01:03:42;;;;;;;44.30;26.10;;;;;;;4.27;74.34;101867.58;107541;1254;112152;-61
2023/01/22 01:06:18;;;;;;;47.00;26.40;;;;;;;4.20;74.33;101867.49;107485;1257;109254;-59
2023/01/22 01:08:48;;;;;;;52.20;26.20;;;;;;;4.16;74.29;101871.61;107545;1254;108120;-61
2023/01/22 01:11:20;;;;;;;39.10;24.10;;;;;;;4.12;74.20;101873.52;107574;1254;97858;-60
2023/01/22 01:13:51;;;;;;;43.90;25.60;;;;;;;4.07;73.98;101882.80;107545;1254;97831;-61
2023/01/22 01:16:29;;;;;;;46.50;28.10;;;;;;;4.03;73.87;101880.32;107595;1254;112233;-60
2023/01/22 01:18:59;;;;;;;47.10;26.90;;;;;;;3.99;73.79;101876.06;107549;1254;110605;-60
2023/01/22 01:21:28;;;;;;;46.30;26.50;;;;;;;3.93;73.81;101875.97;107571;1254;107700;-61
2023/01/22 01:23:58;;;;;;;44.60;25.10;;;;;;;3.88;73.90;101874.02;107528;1253;97851;-59
2023/01/22 01:26:27;;;;;;;47.10;25.90;;;;;;;3.82;73.67;101876.59;107667;1254;97707;-61
2023/01/22 01:28:56;;;;;;;43.80;26.80;;;;;;;3.78;73.75;101883.70;107552;1253;111362;-60
2023/01/22 01:31:27;;;;;;;45.20;27.40;;;;;;;3.75;74.11;101890.00;107588;1254;108927;-60
2023/01/22 01:33:57;;;;;;;45.30;26.10;;;;;;;3.74;74.36;101887.77;107607;1257;108288;-59
2023/01/22 01:36:25;;;;;;;44.40;26.50;;;;;;;3.72;74.06;101886.39;107612;1256;97838;-58
2023/01/22 01:39:14;;;;;;;47.20;26.00;;;;;;;3.71;73.90;101897.98;107507;1254;98566;-59
2023/01/22 01:41:42;;;;;;;43.00;25.90;;;;;;;3.71;74.21;101898.54;107527;1254;111748;-59
2023/01/22 01:44:12;;;;;;;45.90;27.70;;;;;;;3.71;74.15;101902.45;107405;1254;109383;-60
2023/01/22 01:46:54;;;;;;;58.10;31.80;;;;;;;3.70;74.09;101904.40;107556;1254;108913;-58
2023/01/22 01:49:22;;;;;;;55.10;32.90;;;;;;;3.71;74.13;101897.11;107540;1257;98666;-57
2023/01/22 01:51:54;;;;;;;58.40;32.80;;;;;;;3.69;74.10;101901.09;107557;1254;98131;-60
2023/01/22 01:54:23;;;;;;;56.80;32.40;;;;;;;3.72;74.76;101905.77;107470;1254;111822;-61
2023/01/22 01:56:56;;;;;;;58.20;32.10;;;;;;;3.76;74.99;101902.23;107586;1254;110907;-60
2023/01/22 01:59:26;;;;;;;58.90;31.70;;;;;;;3.82;75.64;101909.97;107464;1257;108596;-59
2023/01/22 02:01:55;;;;;;;57.90;32.60;;;;;;;3.84;76.60;101912.20;107507;1254;98149;-61
2023/01/22 02:04:25;;;;;;;62.90;34.50;;;;;;;3.85;76.66;101903.48;107559;1253;97828;-58
2023/01/22 02:06:54;;;;;;;55.60;33.00;;;;;;;3.85;76.91;101895.63;107462;1253;110757;-61
2023/01/22 02:09:23;;;;;;;62.60;33.40;;;;;;;3.89;76.67;101889.09;107499;1254;109230;-60
2023/01/22 02:11:52;;;;;;;59.50;32.30;;;;;;;3.95;76.63;101885.27;107599;1254;108478;-60
2023/01/22 02:14:27;;;;;;;57.00;30.60;;;;;;;4.01;76.75;101890.33;107670;1254;97828;-59
2023/01/22 02:17:05;;;;;;;62.70;32.20;;;;;;;4.09;76.98;101898.36;107493;1254;97845;-60
2023/01/22 02:19:34;;;;;;;53.10;30.70;;;;;;;4.12;76.81;101898.60;107667;1254;111772;-59
2023/01/22 02:22:08;;;;;;;49.00;30.10;;;;;;;4.15;77.03;101897.58;107481;1257;110033;-60
2023/01/22 02:24:36;;;;;;;54.20;30.00;;;;;;;4.21;76.86;101897.67;107616;1256;108013;-63
2023/01/22 02:27:08;;;;;;;53.10;29.10;;;;;;;4.26;77.00;101899.73;107675;1253;97738;-63
2023/01/22 02:29:37;;;;;;;51.70;28.20;;;;;;;4.33;76.97;101906.02;107481;1253;97743;-59
2023/01/22 02:32:06;;;;;;;42.90;23.60;;;;;;;4.33;77.15;101917.52;107625;1254;111559;-59
2023/01/22 02:34:37;;;;;;;41.90;24.00;;;;;;;4.31;77.09;101917.10;107665;1254;109255;-59
2023/01/22 02:37:06;;;;;;;49.30;25.60;;;;;;;4.35;77.12;101920.83;107619;1252;108178;-58
2023/01/22 02:39:35;;;;;;;43.70;23.50;;;;;;;4.44;77.33;101912.83;107521;1257;97858;-59
2023/01/22 02:42:05;;;;;;;37.90;21.80;;;;;;;4.51;77.43;101913.92;107534;1254;97710;-60
2023/01/22 02:44:33;;;;;;;42.80;23.00;;;;;;;4.53;77.25;101915.58;107444;1254;112884;-58
2023/01/22 02:47:03;;;;;;;49.50;29.30;;;;;;;4.54;76.98;101917.15;107530;1253;109470;-59
2023/01/22 02:49:32;;;;;;;50.30;28.70;;;;;;;4.54;76.86;101910.40;107550;1256;107822;-60
2023/01/22 02:52:01;;;;;;;51.80;28.40;;;;;;;4.57;77.05;101914.22;107515;1254;97845;-59
2023/01/22 02:54:29;;;;;;;54.30;30.30;;;;;;;4.58;77.02;101910.96;107661;1257;98382;-59
2023/01/22 02:56:58;;;;;;;55.40;31.30;;;;;;;4.62;76.80;101909.53;107551;1254;111269;-60
2023/01/22 02:59:27;;;;;;;58.10;32.10;;;;;;;4.67;77.14;101911.42;107588;1254;109381;-61
2023/01/22 03:01:56;;;;;;;57.10;31.10;;;;;;;4.72;77.24;101908.35;107547;1256;108690;-59
2023/01/22 03:04:27;;;;;;;55.30;30.20;;;;;;;4.77;76.98;101906.55;107551;1252;97845;-59
2023/01/22 03:06:55;;;;;;;46.00;28.00;;;;;;;4.77;76.37;101911.69;107563;1256;98877;-60
2023/01/22 03:09:27;;;;;;;47.10;27.70;;;;;;;4.78;76.40;101912.04;107449;1258;111821;-60
2023/01/22 03:11:57;;;;;;;44.30;27.10;;;;;;;4.76;76.27;101909.98;107593;1256;110272;-61
2023/01/22 03:22:55;;;;;;;47.30;25.60;;;;;;;4.52;75.99;101924.17;107446;1254;111302;-59
2023/01/22 03:25:24;;;;;;;46.50;25.20;;;;;;;4.45;75.80;101921.80;107491;1253;109103;-59
2023/01/22 03:28:15;;;;;;;44.90;24.70;;;;;;;4.41;75.88;101923.26;107625;1254;107806;-61
2023/01/22 03:30:47;;;;;;;41.20;24.60;;;;;;;4.34;75.93;101924.79;107520;1253;98010;-60
2023/01/22 03:33:15;;;;;;;49.80;26.40;;;;;;;4.29;76.08;101926.42;107750;1254;96292;-60
2023/01/22 03:35:43;;;;;;;44.60;24.90;;;;;;;4.26;76.23;101926.92;107531;1257;113267;-59
2023/01/22 03:38:15;;;;;;;39.80;24.30;;;;;;;4.22;76.30;101926.16;107667;1254;109414;-61
2023/01/22 03:40:44;;;;;;;47.20;25.50;;;;;;;4.21;76.28;101925.20;107534;1257;108548;-60
2023/01/22 03:43:13;;;;;;;46.20;26.00;;;;;;;4.19;76.26;101926.34;107442;1257;98065;-59
2023/01/22 03:45:41;;;;;;;40.20;24.70;;;;;;;4.17;76.51;101928.04;107614;1254;98373;-59
2023/01/22 03:48:12;;;;;;;42.80;25.80;;;;;;;4.17;76.48;101934.57;107568;1254;111875;-59
2023/01/22 03:50:41;;;;;;;49.20;23.50;;;;;;;4.17;76.48;101942.90;107557;1254;109530;-59
2023/01/22 03:53:09;;;;;;;39.10;23.40;;;;;;;4.18;76.56;101940.41;107529;1256;108681;-59
2023/01/22 03:55:37;;;;;;;39.30;22.20;;;;;;;4.20;77.29;101941.73;107586;1254;97852;-59
2023/01/22 03:58:06;;;;;;;37.00;23.00;;;;;;;4.21;77.04;101939.04;107429;1259;98389;-60
2023/01/22 04:00:35;;;;;;;38.00;22.60;;;;;;;4.26;77.49;101934.90;107573;1254;111300;-58
2023/01/22 04:03:05;;;;;;;38.80;22.00;;;;;;;4.31;77.47;101942.89;107554;1256;109745;-59
2023/01/22 04:05:34;;;;;;;38.20;21.30;;;;;;;4.35;77.65;101947.83;107431;1254;108114;-60
2023/01/22 04:08:03;;;;;;;37.80;21.30;;;;;;;4.43;78.16;101941.46;107444;1254;97877;-59
2023/01/22 04:10:32;;;;;;;38.70;23.90;;;;;;;4.48;77.93;101943.54;107546;1254;97945;-59
2023/01/22 04:13:03;;;;;;;42.70;23.60;;;;;;;4.48;78.24;101945.34;107584;1256;111398;-59
2023/01/22 04:15:31;;;;;;;44.20;25.30;;;;;;;4.46;77.87;101940.96;107568;1254;107256;-59
2023/01/22 04:18:04;;;;;;;46.80;26.50;;;;;;;4.47;78.16;101940.19;107449;1254;106674;-60
2023/01/22 04:20:47;;;;;;;47.90;25.60;;;;;;;4.49;78.40;101940.14;107505;1254;97923;-60
2023/01/22 04:23:33;;;;;;;47.60;28.30;;;;;;;4.49;78.38;101939.23;107468;1256;97713;-59
2023/01/22 04:26:02;;;;;;;51.70;30.20;;;;;;;4.42;78.50;101937.41;107598;1253;110521;-60
2023/01/22 04:28:31;;;;;;;48.70;28.00;;;;;;;4.37;78.63;101941.73;107693;1254;109603;-58
2023/01/22 04:31:00;;;;;;;46.40;28.10;;;;;;;4.32;78.94;101945.45;107626;1254;107676;-60
2023/01/22 04:33:49;;;;;;;54.00;28.60;;;;;;;4.34;79.19;101953.01;107247;1255;97876;-58
2023/01/22 04:36:25;;;;;;;41.30;24.60;;;;;;;4.38;79.23;101951.09;107669;1255;97754;-58
2023/01/22 04:38:57;;;;;;;34.80;19.60;;;;;;;4.38;78.97;101949.11;107478;1254;111831;-59
2023/01/22 04:41:25;;;;;;;38.40;18.50;;;;;;;4.37;79.86;101944.73;107595;1254;110000;-59
2023/01/22 04:43:54;;;;;;;31.10;18.20;;;;;;;4.33;80.07;101952.90;107437;1253;109390;-61
2023/01/22 04:46:25;;;;;;;30.00;17.60;;;;;;;4.29;79.95;101957.52;107616;1254;97821;-61
2023/01/22 04:48:53;;;;;;;29.20;17.90;;;;;;;4.30;79.66;101962.11;107627;1254;98401;-60
2023/01/22 04:51:21;;;;;;;34.80;18.50;;;;;;;4.30;79.67;101956.74;107669;1254;111787;-59
2023/01/22 04:53:50;;;;;;;29.70;17.40;;;;;;;4.31;79.79;101964.33;107458;1254;109511;-59
2023/01/22 04:56:18;;;;;;;27.10;17.10;;;;;;;4.36;79.91;101968.02;107419;1257;108690;-58
2023/01/22 04:58:48;;;;;;;27.00;16.20;;;;;;;4.40;80.01;101967.52;107682;1253;97854;-59
2023/01/22 05:01:17;;;;;;;30.10;17.60;;;;;;;4.42;80.16;101972.42;107644;1254;98372;-59
2023/01/22 05:03:46;;;;;;;32.70;17.90;;;;;;;4.42;80.33;101970.27;107671;1254;112139;-60
2023/01/22 05:06:15;;;;;;;32.80;17.90;;;;;;;4.41;80.12;101979.23;107667;1254;109920;-59
2023/01/22 05:08:43;;;;;;;32.40;17.60;;;;;;;4.36;80.36;101980.98;107621;1254;108224;-59
2023/01/22 05:11:12;;;;;;;33.10;18.00;;;;;;;4.32;80.84;101978.52;107477;1254;97823;-59
2023/01/22 05:13:51;;;;;;;36.70;19.20;;;;;;;4.29;82.14;101979.20;107561;1254;98431;-60
2023/01/22 05:16:20;;;;;;;33.30;19.00;;;;;;;4.26;83.78;101977.70;107541;1254;111517;-59
2023/01/22 05:18:48;;;;;;;31.70;18.70;;;;;;;4.21;84.07;101983.25;107457;1254;109661;-59
2023/01/22 05:21:17;;;;;;;37.50;19.70;;;;;;;4.17;84.00;101987.48;107603;1254;108098;-60
2023/01/22 05:23:46;;;;;;;42.90;20.90;;;;;;;4.15;84.50;101989.38;107516;1254;97815;-59
2023/01/22 05:26:17;;;;;;;38.80;20.10;;;;;;;4.15;84.92;101991.52;107630;1254;97944;-59
2023/01/22 05:29:08;;;;;;;39.30;20.30;;;;;;;4.16;85.70;101985.26;107621;1254;111926;-59
2023/01/22 05:31:56;;;;;;;34.10;19.10;;;;;;;4.18;86.34;101989.40;107639;1254;109943;-60
2023/01/22 05:34:31;;;;;;;31.00;18.20;;;;;;;4.20;86.69;101996.40;107628;1252;108108;-59
2023/01/22 05:37:00;;;;;;;34.40;19.60;;;;;;;4.25;86.89;102002.46;107630;1254;97817;-58
2023/01/22 05:39:30;;;;;;;34.20;19.50;;;;;;;4.29;86.93;102003.86;107664;1253;97950;-59
2023/01/22 05:42:00;;;;;;;33.20;18.50;;;;;;;4.33;87.51;102010.10;107598;1253;111715;-58
2023/01/22 05:44:29;;;;;;;37.00;19.70;;;;;;;4.36;87.73;102017.39;107557;1254;109424;-60
2023/01/22 05:47:01;;;;;;;32.90;18.00;;;;;;;4.42;88.28;102019.14;107593;1253;107690;-65
2023/01/22 05:50:01;;;;;;;34.20;17.40;;;;;;;4.49;88.54;102022.36;107294;1254;97825;-57
2023/01/22 05:52:30;;;;;;;34.00;18.00;;;;;;;4.58;89.24;102019.15;107444;1254;98184;-59
2023/01/22 05:55:00;;;;;;;31.30;18.00;;;;;;;4.65;89.91;102011.36;107404;1254;112870;-60
2023/01/22 05:57:35;;;;;;;35.60;17.50;;;;;;;4.73;89.70;102015.47;107456;1254;109322;-60
2023/01/22 06:00:06;;;;;;;38.70;18.40;;;;;;;4.80;90.39;102016.23;107416;1254;107567;-60
2023/01/22 06:02:43;;;;;;;32.30;17.20;;;;;;;4.85;90.32;102026.31;107575;1253;97864;-65
2023/01/22 06:05:13;;;;;;;32.00;17.30;;;;;;;4.90;90.17;102034.30;107584;1253;97768;-60
2023/01/22 06:07:42;;;;;;;33.40;17.80;;;;;;;4.93;90.16;102040.89;107558;1253;111810;-60
2023/01/22 06:10:10;;;;;;;31.00;17.00;;;;;;;4.96;89.57;102041.34;107521;1253;110862;-61
2023/01/22 06:12:43;;;;;;;29.10;15.70;;;;;;;4.99;89.36;102041.00;107559;1254;107650;-59
2023/01/22 06:15:11;;;;;;;26.50;14.70;;;;;;;5.05;89.55;102050.54;107425;1252;97995;-59
2023/01/22 06:17:42;;;;;;;24.30;14.00;;;;;;;5.12;89.48;102061.58;107578;1252;97816;-59
2023/01/22 06:20:11;;;;;;;27.50;15.00;;;;;;;5.21;89.13;102066.16;107540;1254;112310;-58
2023/01/22 06:22:39;;;;;;;23.50;14.20;;;;;;;5.29;89.14;102069.35;107442;1254;109645;-59
2023/01/22 06:25:08;;;;;;;28.10;14.50;;;;;;;5.35;89.20;102069.27;107476;1254;107618;-60
2023/01/22 06:28:10;;;;;;;20.00;12.10;;;;;;;5.39;89.43;102068.89;107372;1253;97928;-59
2023/01/22 06:30:39;;;;;;;24.00;12.70;;;;;;;5.43;89.73;102077.80;107592;1253;99281;-60
2023/01/22 06:33:07;;;;;;;25.90;13.00;;;;;;;5.48;89.58;102078.63;107607;1253;111560;-60
2023/01/22 06:35:36;;;;;;;24.10;12.70;;;;;;;5.51;90.11;102078.48;107412;1254;110018;-60
2023/01/22 06:38:05;;;;;;;21.30;12.30;;;;;;;5.54;90.24;102079.10;107421;1254;107328;-60
2023/01/22 06:40:34;;;;;;;20.80;11.20;;;;;;;5.57;90.46;102081.44;107411;1254;97930;-59
2023/01/22 06:43:07;;;;;;;20.60;11.20;;;;;;;5.60;91.00;102083.42;107576;1254;98386;-58
2023/01/22 06:45:38;;;;;;;23.90;11.80;;;;;;;5.63;90.89;102088.60;107479;1253;112356;-59
2023/01/22 06:48:08;;;;;;;18.20;11.60;;;;;;;5.68;91.34;102088.80;107548;1252;110000;-60
2023/01/22 06:50:36;;;;;;;20.50;10.90;;;;;;;5.71;91.76;102089.86;107559;1253;107712;-59
2023/01/22 06:53:05;;;;;;;19.90;10.10;;;;;;;5.73;91.89;102088.00;107537;1256;97867;-59
2023/01/22 06:55:33;;;;;;;17.90;10.10;;;;;;;5.76;92.10;102096.55;107484;1253;97736;-60
2023/01/22 06:58:02;;;;;;;16.00;9.10;;;;;;;5.80;91.93;102101.91;107560;1252;110718;-61
2023/01/22 07:00:31;;;;;;;15.70;8.50;;;;;;;5.85;91.52;102105.93;107601;1254;108873;-60
2023/01/22 07:02:59;;;;;;;14.80;8.90;;;;;;;5.88;91.33;102111.30;107572;1253;108337;-59
2023/01/22 07:05:27;;;;;;;22.60;12.40;;;;;;;5.90;91.04;102116.22;107529;1254;97831;-59
2023/01/22 07:07:56;;;;;;;20.70;11.70;;;;;;;5.91;90.90;102122.55;107558;1253;97708;-60
2023/01/22 07:10:24;;;;;;;17.70;10.30;;;;;;;5.92;90.55;102130.34;107580;1252;112068;-60
2023/01/22 07:13:00;;;;;;;23.40;12.60;;;;;;;5.93;90.46;102137.77;107584;1254;110932;-61
2023/01/22 07:15:28;;;;;;;22.40;11.90;;;;;;;5.96;90.39;102139.77;107591;1254;108098;-60
2023/01/22 07:17:57;;;;;;;24.00;11.60;;;;;;;6.00;90.17;102140.16;107534;1254;97871;-61
2023/01/22 07:20:25;;;;;;;22.40;12.60;;;;;;;6.04;90.39;102143.04;107602;1252;97822;-59
2023/01/22 07:22:56;;;;;;;15.40;8.80;;;;;;;6.07;90.62;102148.05;107582;1254;111826;-60
2023/01/22 07:25:27;;;;;;;19.20;9.60;;;;;;;6.12;90.84;102143.35;107487;1254;109235;-60
2023/01/22 07:28:00;;;;;;;18.30;9.20;;;;;;;6.19;90.76;102140.51;107412;1253;107875;-61
2023/01/22 07:30:29;;;;;;;18.20;9.00;;;;;;;6.25;90.63;102145.02;107420;1254;97697;-60
2023/01/22 07:33:01;;;;;;;16.20;8.90;;;;;;;6.29;90.87;102143.27;107445;1257;98445;-60
2023/01/22 07:35:29;;;;;;;19.40;9.50;;;;;;;6.30;90.93;102147.28;107488;1254;111872;-58
2023/01/22 07:37:59;;;;;;;14.30;8.20;;;;;;;6.32;90.89;102142.38;107390;1253;110389;-59
2023/01/22 07:40:28;;;;;;;15.10;8.90;;;;;;;6.37;91.02;102143.18;107481;1254;107928;-60
2023/01/22 07:42:56;;;;;;;15.00;9.50;;;;;;;6.41;90.81;102139.96;107567;1253;97720;-58
2023/01/22 07:45:25;;;;;;;15.90;8.20;;;;;;;6.45;90.86;102144.08;107521;1254;97731;-60
2023/01/22 07:47:56;;;;;;;11.70;6.60;;;;;;;6.47;90.94;102146.29;107571;1254;112424;-60
2023/01/22 07:50:29;;;;;;;8.80;5.90;;;;;;;6.51;91.09;102151.48;107668;1254;110500;-62
2023/01/22 07:52:59;;;;;;;9.30;5.60;;;;;;;6.56;91.15;102154.95;107604;1253;108496;-59
2023/01/22 07:55:30;;;;;;;14.50;6.20;;;;;;;6.63;91.34;102160.16;107678;1253;97717;-58
2023/01/22 07:58:01;;;;;;;12.60;6.00;;;;;;;6.68;90.78;102156.84;107596;1252;98354;-59
2023/01/22 08:00:30;;;;;;;12.00;5.90;;;;;;;6.73;90.78;102153.91;107675;1252;112088;-59
2023/01/22 08:02:58;;;;;;;12.50;6.90;;;;;;;6.78;90.63;102152.24;107584;1254;109724;-60
2023/01/22 08:05:26;;;;;;;12.20;5.70;;;;;;;6.81;90.36;102157.80;107573;1254;108941;-59
2023/01/22 08:07:55;;;;;;;8.80;5.00;;;;;;;6.84;90.09;102154.27;107532;1254;97819;-60
2023/01/22 08:10:23;;;;;;;10.00;5.10;;;;;;;6.86;89.94;102163.44;107522;1253;97844;-60
2023/01/22 08:12:51;;;;;;;10.80;5.50;;;;;;;6.88;89.87;102169.77;107412;1253;111388;-60
2023/01/22 08:15:20;;;;;;;8.80;5.80;;;;;;;6.92;89.70;102169.96;107626;1253;109134;-59
2023/01/22 08:17:50;;;;;;;15.80;6.70;;;;;;;6.92;89.34;102172.02;107557;1254;108460;-59
2023/01/22 08:20:18;;;;;;;11.80;6.50;;;;;;;6.93;89.35;102169.36;107583;1253;97816;-59
2023/01/22 08:22:47;;;;;;;16.30;6.80;;;;;;;6.94;89.50;102176.23;107595;1253;97746;-61
2023/01/22 08:25:16;;;;;;;11.10;5.50;;;;;;;6.97;89.33;102172.86;107618;1254;112263;-59
2023/01/22 08:27:44;;;;;;;14.90;6.60;;;;;;;7.00;89.03;102173.44;107614;1253;108689;-60
2023/01/22 08:30:14;;;;;;;13.50;7.30;;;;;;;7.00;88.93;102168.60;107557;1253;108353;-61
2023/01/22 08:32:44;;;;;;;11.60;6.90;;;;;;;7.01;88.99;102171.94;107657;1254;97828;-60
2023/01/22 08:35:13;;;;;;;12.70;7.60;;;;;;;7.01;89.04;102178.73;107644;1253;97941;-61
2023/01/22 08:37:42;;;;;;;14.40;7.40;;;;;;;7.00;89.03;102180.55;107610;1253;112762;-61
2023/01/22 08:40:12;;;;;;;10.70;5.90;;;;;;;7.00;89.26;102177.38;107559;1254;109509;-60
2023/01/22 08:42:40;;;;;;;14.50;7.10;;;;;;;7.00;89.02;102183.23;107565;1253;108701;-60
2023/01/22 08:45:10;;;;;;;15.80;6.30;;;;;;;7.01;89.11;102185.70;107565;1254;97799;-59
2023/01/22 08:47:38;;;;;;;10.80;6.20;;;;;;;7.03;89.19;102190.45;107686;1254;97835;-60
2023/01/22 08:50:07;;;;;;;10.70;5.70;;;;;;;7.04;88.90;102198.70;107583;1253;111759;-61
2023/01/22 08:52:36;;;;;;;11.10;5.70;;;;;;;7.09;88.86;102200.11;107653;1254;108566;-60
2023/01/22 08:55:08;;;;;;;17.40;8.70;;;;;;;7.13;88.41;102202.20;107578;1253;107706;-61
2023/01/22 08:57:36;;;;;;;14.60;7.20;;;;;;;7.16;88.42;102207.04;107612;1253;97944;-60
2023/01/22 09:00:10;;;;;;;12.00;5.70;;;;;;;7.23;88.35;102206.18;107599;1252;98482;-58
2023/01/22 09:02:38;;;;;;;10.30;6.40;;;;;;;7.29;87.97;102203.73;107664;1254;110611;-60
2023/01/22 09:05:07;;;;;;;13.80;6.40;;;;;;;7.38;87.71;102206.47;107609;1254;109472;-60
2023/01/22 09:07:36;;;;;;;9.60;5.50;;;;;;;7.47;87.42;102202.26;107616;1253;107938;-59
2023/01/22 09:10:06;;;;;;;8.70;5.20;;;;;;;7.61;86.95;102200.23;107516;1253;97914;-59
2023/01/22 09:12:35;;;;;;;7.50;4.70;;;;;;;7.76;86.14;102198.95;107613;1254;97847;-60
2023/01/22 09:15:04;;;;;;;9.40;5.00;;;;;;;7.87;85.91;102196.02;107594;1253;111928;-58
2023/01/22 09:17:32;;;;;;;11.60;5.40;;;;;;;8.00;85.33;102194.64;107619;1254;110550;-60
2023/01/22 09:20:01;;;;;;;8.20;4.80;;;;;;;8.12;84.72;102201.81;107559;1254;107190;-60
2023/01/22 09:22:29;;;;;;;14.70;5.40;;;;;;;8.24;84.29;102209.04;107600;1253;98541;-60
2023/01/22 09:24:58;;;;;;;9.10;4.30;;;;;;;8.37;83.75;102212.20;107602;1253;97937;-60
2023/01/22 09:27:26;;;;;;;7.80;4.70;;;;;;;8.47;82.15;102203.63;107682;1253;112264;-60
2023/01/22 09:29:55;;;;;;;8.90;4.90;;;;;;;8.55;80.97;102206.58;107620;1252;110112;-61
2023/01/22 09:32:23;;;;;;;10.00;5.00;;;;;;;8.57;79.89;102207.56;107676;1252;107978;-60
2023/01/22 09:34:52;;;;;;;11.70;6.00;;;;;;;8.58;79.98;102208.77;107610;1254;97834;-60
2023/01/22 09:37:20;;;;;;;15.90;5.10;;;;;;;8.60;80.10;102208.09;107629;1253;98383;-60
2023/01/22 09:39:49;;;;;;;11.90;5.00;;;;;;;8.64;79.61;102210.05;107593;1254;111709;-60
2023/01/22 09:42:27;;;;;;;6.90;4.70;;;;;;;8.66;79.47;102208.30;107631;1254;109236;-58
2023/01/22 09:45:01;;;;;;;12.80;5.90;;;;;;;8.72;79.43;102212.05;107565;1252;108718;-60
2023/01/22 09:47:41;;;;;;;7.90;4.50;;;;;;;8.82;79.35;102213.31;107561;1254;97841;-60
2023/01/22 09:50:12;;;;;;;11.60;5.80;;;;;;;8.89;79.05;102218.79;107605;1253;97851;-61
2023/01/22 09:52:40;;;;;;;14.00;5.30;;;;;;;8.99;78.82;102220.16;107560;1253;113194;-59
2023/01/22 09:55:15;;;;;;;12.10;5.40;;;;;;;9.08;77.89;102220.00;107619;1253;109288;-59
2023/01/22 09:57:46;;;;;;;9.00;4.90;;;;;;;9.12;77.71;102216.04;107569;1253;108804;-60
2023/01/22 10:00:29;;;;;;;13.60;5.80;;;;;;;9.15;77.75;102209.92;107636;1256;97957;-60
2023/01/22 10:03:02;;;;;;;12.40;5.70;;;;;;;9.20;77.27;102210.86;107561;1253;97876;-61
2023/01/22 10:05:36;;;;;;;11.80;5.90;;;;;;;9.17;76.86;102208.52;107608;1254;111832;-60
2023/01/22 10:08:11;;;;;;;;;;;;;;;9.18;76.70;102212.45;107613;1254;109392;-60
2023/01/22 10:10:40;;;;;;;10.90;6.60;;;;;;;9.16;76.37;102209.89;107578;1254;108232;-61
2023/01/22 10:13:28;;;;;;;19.30;7.90;;;;;;;9.14;76.16;102206.77;107586;1254;97819;-60
2023/01/22 10:15:57;;;;;;;13.90;6.90;;;;;;;9.10;76.44;102206.83;107586;1253;98457;-60
2023/01/22 10:18:25;;;;;;;16.90;7.30;;;;;;;9.07;76.32;102207.33;107609;1253;111724;-60
2023/01/22 10:20:55;;;;;;;13.20;6.10;;;;;;;9.05;76.24;102210.86;107609;1252;110448;-59
2023/01/22 10:23:25;;;;;;;11.60;6.20;;;;;;;9.08;76.28;102209.96;107605;1252;107697;-59
2023/01/22 10:26:24;;;;;;;8.60;5.90;;;;;;;9.16;76.21;102214.53;107652;1253;97847;-61
2023/01/22 10:28:57;;;;;;;8.50;5.10;;;;;;;9.35;76.11;102211.97;107562;1253;97873;-60
2023/01/22 10:31:33;;;;;;;10.90;5.90;;;;;;;9.46;76.05;102210.93;107675;1253;112108;-60
2023/01/22 10:34:15;;;;;;;11.20;5.90;;;;;;;9.60;76.00;102208.67;107608;1253;110096;-60
2023/01/22 10:36:52;;;;;;;12.80;6.90;;;;;;;9.84;76.17;102213.10;107630;1254;108547;-59
2023/01/22 10:39:20;;;;;;;14.60;6.30;;;;;;;10.04;75.68;102205.19;107604;1252;97706;-61
2023/01/22 10:41:49;;;;;;;18.00;6.50;;;;;;;10.15;75.06;102207.55;107556;1253;98466;-59
2023/01/22 10:44:24;;;;;;;10.70;6.10;;;;;;;10.21;74.83;102209.35;106808;1252;1022902;-61
2023/01/22 10:46:54;;;;;;;20.70;7.70;;;;;;;10.22;74.34;102205.52;107571;1253;110176;-59
2023/01/22 10:49:26;;;;;;;14.50;7.50;;;;;;;10.28;74.68;102209.60;107538;1253;108804;-61
2023/01/22 10:52:04;;;;;;;13.00;7.00;;;;;;;10.39;74.59;102208.04;107598;1254;97824;-60
2023/01/22 10:54:38;;;;;;;20.90;8.70;;;;;;;10.55;74.50;102207.38;107592;1254;98379;-60
2023/01/22 10:57:22;;;;;;;19.80;7.70;;;;;;;10.84;74.26;102201.91;107588;1254;111807;-61
2023/01/22 11:00:13;;;;;;;14.00;7.90;;;;;;;11.18;72.53;102203.00;107618;1254;110084;-59
2023/01/22 11:02:44;;;;;;;18.40;9.20;;;;;;;11.25;71.64;102199.27;107465;1254;109084;-61
2023/01/22 11:05:26;;;;;;;25.00;11.00;;;;;;;11.20;71.07;102198.91;107616;1252;97740;-61
2023/01/22 11:08:10;;;;;;;20.50;8.50;;;;;;;11.07;71.03;102204.81;107606;1253;97739;-59
2023/01/22 11:10:58;;;;;;;22.50;9.30;;;;;;;10.95;69.96;102202.05;107631;1254;112068;-60
2023/01/22 11:13:55;;;;;;;14.00;8.00;;;;;;;10.71;70.38;102203.80;107644;1254;108548;-60
2023/01/22 11:16:24;;;;;;;17.00;8.50;;;;;;;10.55;70.84;102198.39;107557;1253;109804;-59
2023/01/22 11:19:11;;;;;;;18.40;8.50;;;;;;;10.43;71.28;102199.02;107631;1253;97845;-58
2023/01/22 11:21:49;;;;;;;32.80;13.90;;;;;;;10.31;71.43;102199.21;107641;1254;98385;-58
2023/01/22 11:24:36;;;;;;;14.50;8.10;;;;;;;10.20;72.00;102205.29;107623;1253;111673;-58
2023/01/22 11:27:20;;;;;;;16.90;7.90;;;;;;;10.10;71.98;102205.91;107602;1254;109546;-60
2023/01/22 11:30:08;;;;;;;14.90;7.40;;;;;;;10.12;72.21;102210.09;107629;1254;107994;-59
2023/01/22 11:32:42;;;;;;;13.40;7.20;;;;;;;10.16;72.47;102211.98;107611;1254;97826;-58
2023/01/22 11:35:32;;;;;;;15.40;8.40;;;;;;;10.17;72.23;102216.94;107625;1254;97902;-60